createdAt,value
2019-01-27T00:02:13.910Z,57.87
2019-01-27T00:04:43.816Z,58.83
2019-01-27T00:07:13.823Z,57.90
2019-01-27T00:09:43.637Z,52.47
2019-01-27T00:12:14.166Z,50.13
2019-01-27T00:14:46.866Z,51.17
2019-01-27T00:17:17.078Z,45.97
2019-01-27T00:19:50.099Z,65.07
2019-01-27T00:22:27.247Z,50.40
2019-01-27T00:25:00.847Z,50.53
2019-01-27T00:27:31.367Z,53.00
2019-01-27T00:30:00.872Z,51.53
2019-01-27T00:32:30.899Z,50.83
2019-01-27T00:35:00.916Z,56.00
2019-01-27T00:37:31.430Z,60.30
2019-01-27T00:40:01.551Z,53.30
2019-01-27T00:42:31.668Z,59.87
2019-01-27T00:45:01.709Z,57.40
2019-01-27T00:47:32.093Z,71.33
2019-01-27T00:50:02.355Z,56.47
2019-01-27T00:52:32.347Z,48.23
2019-01-27T00:55:02.570Z,60.87
2019-01-27T00:57:32.697Z,53.17
2019-01-27T01:00:02.605Z,58.33
2019-01-27T01:02:33.044Z,51.53
2019-01-27T01:05:06.096Z,65.70
2019-01-27T01:07:36.136Z,56.13
2019-01-27T01:10:06.661Z,55.43
2019-01-27T01:12:36.903Z,60.63
2019-01-27T01:15:08.257Z,59.37
2019-01-27T01:17:38.449Z,52.23
2019-01-27T01:20:10.010Z,58.83
2019-01-27T01:22:43.513Z,59.90
2019-01-27T01:25:15.259Z,56.67
2019-01-27T01:27:48.266Z,65.40
2019-01-27T01:30:19.082Z,58.07
2019-01-27T01:32:48.687Z,58.70
2019-01-27T01:35:18.936Z,60.53
2019-01-27T01:37:49.085Z,58.23
2019-01-27T01:40:19.658Z,65.93
2019-01-27T01:42:50.216Z,58.97
2019-01-27T01:45:26.089Z,61.13
2019-01-27T01:47:58.746Z,57.17
2019-01-27T01:50:33.174Z,53.63
2019-01-27T01:53:02.642Z,66.93
2019-01-27T01:55:32.784Z,57.47
2019-01-27T01:58:02.593Z,59.60
2019-01-27T02:00:33.216Z,62.87
2019-01-27T02:03:03.526Z,58.63
2019-01-27T02:05:33.773Z,55.97
2019-01-27T02:08:03.775Z,57.87
2019-01-27T02:10:33.678Z,59.67
2019-01-27T02:13:04.425Z,72.47
2019-01-27T02:15:40.486Z,54.27
2019-01-27T02:18:10.687Z,57.73
2019-01-27T02:20:40.725Z,58.30
2019-01-27T02:23:10.526Z,61.47
2019-01-27T02:25:40.868Z,61.53
2019-01-27T02:28:10.775Z,59.03
2019-01-27T02:30:41.606Z,65.87
2019-01-27T02:33:11.933Z,61.80
2019-01-27T02:35:41.832Z,60.70
2019-01-27T02:38:16.057Z,62.60
2019-01-27T02:40:45.873Z,62.60
2019-01-27T02:43:15.667Z,54.63
2019-01-27T02:45:45.685Z,54.60
2019-01-27T02:48:15.496Z,68.07
2019-01-27T02:50:45.722Z,59.17
2019-01-27T02:53:16.085Z,56.23
2019-01-27T02:55:45.867Z,61.33
2019-01-27T02:58:17.326Z,59.43
2019-01-27T03:00:47.645Z,55.63
2019-01-27T03:03:17.769Z,64.17
2019-01-27T03:05:57.415Z,52.87
2019-01-27T03:08:30.803Z,53.10
2019-01-27T03:11:00.918Z,54.20
2019-01-27T03:13:31.268Z,57.50
2019-01-27T03:16:02.783Z,52.43
2019-01-27T03:18:34.444Z,56.20
2019-01-27T03:21:06.804Z,47.77
2019-01-27T03:23:36.844Z,48.77
2019-01-27T03:26:07.447Z,46.33
2019-01-27T03:28:37.465Z,48.40
2019-01-27T03:31:07.514Z,46.30
2019-01-27T03:33:37.705Z,46.20
2019-01-27T03:36:07.843Z,47.77
2019-01-27T03:38:38.587Z,45.03
2019-01-27T03:41:08.595Z,43.60
2019-01-27T03:43:38.707Z,49.20
2019-01-27T03:46:08.936Z,42.53
2019-01-27T03:48:39.141Z,52.93
2019-01-27T03:51:09.787Z,43.13
2019-01-27T03:53:40.006Z,46.37
2019-01-27T03:56:10.516Z,42.13
2019-01-27T03:58:51.516Z,49.60
2019-01-27T04:01:48.079Z,40.53
2019-01-27T04:04:18.867Z,38.47
2019-01-27T04:06:50.828Z,39.40
2019-01-27T04:09:20.859Z,39.63
2019-01-27T04:11:52.005Z,40.17
2019-01-27T04:14:22.738Z,45.27
2019-01-27T04:16:52.738Z,40.13
2019-01-27T04:19:23.078Z,39.63
2019-01-27T04:21:53.287Z,40.30
2019-01-27T04:24:23.206Z,38.57
2019-01-27T04:26:53.111Z,34.80
2019-01-27T04:29:23.025Z,37.60
2019-01-27T04:31:53.058Z,36.33
2019-01-27T04:34:23.074Z,36.77
2019-01-27T04:36:52.974Z,36.30
2019-01-27T04:39:23.416Z,36.73
2019-01-27T04:41:53.836Z,34.03
2019-01-27T04:44:24.258Z,37.53
2019-01-27T04:46:56.095Z,33.77
2019-01-27T04:49:26.527Z,36.90
2019-01-27T04:51:56.649Z,36.47
2019-01-27T04:54:26.262Z,33.73
2019-01-27T04:56:55.758Z,37.67
2019-01-27T04:59:25.470Z,38.80
2019-01-27T05:01:54.767Z,32.83
2019-01-27T05:04:36.462Z,38.40
2019-01-27T05:07:06.473Z,39.37
2019-01-27T05:09:35.875Z,40.20
2019-01-27T05:12:05.788Z,39.17
2019-01-27T05:14:36.019Z,38.00
2019-01-27T05:17:05.720Z,39.77
2019-01-27T05:19:35.323Z,35.60
2019-01-27T05:22:05.245Z,34.17
2019-01-27T05:24:35.256Z,33.57
2019-01-27T05:27:05.069Z,30.23
2019-01-27T05:29:34.881Z,29.93
2019-01-27T05:32:04.794Z,32.50
2019-01-27T05:34:34.510Z,35.07
2019-01-27T05:37:04.214Z,34.70
2019-01-27T05:39:34.648Z,31.40
2019-01-27T05:42:04.350Z,30.73
2019-01-27T05:44:34.085Z,35.37
2019-01-27T05:47:03.770Z,31.03
2019-01-27T05:49:33.782Z,32.67
2019-01-27T05:52:03.494Z,35.47
2019-01-27T05:54:33.200Z,35.67
2019-01-27T05:57:03.019Z,33.13
2019-01-27T05:59:33.243Z,34.97
2019-01-27T06:02:02.839Z,43.13
2019-01-27T06:04:32.762Z,40.00
2019-01-27T06:07:02.465Z,40.03
2019-01-27T06:09:31.867Z,37.73
2019-01-27T06:12:01.678Z,36.17
2019-01-27T06:14:31.285Z,37.37
2019-01-27T06:17:00.788Z,34.87
2019-01-27T06:19:30.807Z,41.93
2019-01-27T06:22:00.410Z,36.90
2019-01-27T06:24:29.925Z,33.27
2019-01-27T06:26:59.838Z,42.47
2019-01-27T06:29:29.335Z,35.00
2019-01-27T06:31:58.741Z,31.10
2019-01-27T06:34:28.656Z,35.30
2019-01-27T06:36:58.466Z,33.13
2019-01-27T06:39:28.275Z,29.53
2019-01-27T06:41:57.785Z,30.07
2019-01-27T06:44:27.490Z,35.20
2019-01-27T06:46:57.506Z,39.73
2019-01-27T06:49:27.219Z,41.63
2019-01-27T06:51:57.023Z,37.93
2019-01-27T06:54:26.742Z,38.83
2019-01-27T06:56:56.455Z,33.07
2019-01-27T06:59:31.887Z,33.40
2019-01-27T07:02:20.440Z,33.50
2019-01-27T07:05:09.197Z,29.03
2019-01-27T07:07:57.746Z,30.90
2019-01-27T07:10:48.042Z,32.30
2019-01-27T07:13:37.206Z,35.30
2019-01-27T07:16:26.413Z,32.60
2019-01-27T07:19:15.118Z,32.40
2019-01-27T07:22:04.303Z,33.40
2019-01-27T07:25:12.405Z,35.53
2019-01-27T07:28:01.463Z,39.40
2019-01-27T07:33:30.702Z,34.10
2019-01-27T07:36:19.433Z,35.37
2019-01-27T07:39:08.623Z,38.47
2019-01-27T07:41:45.703Z,34.57
2019-01-27T07:44:34.235Z,32.67
2019-01-27T07:47:09.782Z,32.27
2019-01-27T07:49:54.549Z,34.07
2019-01-27T07:52:35.080Z,33.70
2019-01-27T07:55:24.121Z,30.43
2019-01-27T07:58:16.509Z,37.37
2019-01-27T08:00:55.751Z,32.37
2019-01-27T08:03:38.569Z,37.10
2019-01-27T08:06:23.834Z,38.50
2019-01-27T08:09:07.474Z,31.47
2019-01-27T08:11:56.222Z,33.20
2019-01-27T08:14:35.971Z,35.93
2019-01-27T08:17:24.835Z,33.30
2019-01-27T08:20:00.803Z,34.07
2019-01-27T08:22:49.334Z,35.67
2019-01-27T08:25:37.789Z,30.93
2019-01-27T08:28:18.655Z,31.50
2019-01-27T08:31:07.205Z,30.90
2019-01-27T08:33:52.796Z,35.33
2019-01-27T08:36:31.822Z,28.37
2019-01-27T08:39:20.676Z,27.03
2019-01-27T08:42:09.109Z,30.17
2019-01-27T08:44:57.671Z,29.63
2019-01-27T08:47:27.279Z,31.73
2019-01-27T08:49:57.084Z,28.90
2019-01-27T08:52:26.898Z,27.60
2019-01-27T08:54:57.735Z,30.13
2019-01-27T08:57:27.445Z,30.97
2019-01-27T08:59:57.353Z,29.87
2019-01-27T09:02:46.079Z,27.33
2019-01-27T09:05:29.345Z,30.43
2019-01-27T09:08:18.339Z,32.63
2019-01-27T09:11:07.476Z,34.10
2019-01-27T09:13:56.430Z,30.03
2019-01-27T09:16:45.185Z,28.40
2019-01-27T09:19:29.739Z,31.27
2019-01-27T09:22:18.605Z,30.57
2019-01-27T09:25:00.501Z,32.53
2019-01-27T09:27:35.730Z,39.53
2019-01-27T09:30:13.533Z,44.47
2019-01-27T09:32:58.293Z,40.80
2019-01-27T09:35:41.619Z,40.70
2019-01-27T09:38:26.295Z,42.03
2019-01-27T09:41:15.449Z,31.17
2019-01-27T09:44:04.404Z,30.37
2019-01-27T09:46:53.060Z,30.07
2019-01-27T09:49:42.226Z,31.00
2019-01-27T09:52:19.008Z,35.03
2019-01-27T09:55:02.434Z,30.00
2019-01-27T09:57:44.645Z,39.03
2019-01-27T10:00:34.309Z,30.70
2019-01-27T10:03:23.380Z,31.47
2019-01-27T10:06:12.857Z,29.13
2019-01-27T10:09:03.034Z,34.73
2019-01-27T10:11:47.799Z,41.17
2019-01-27T10:14:37.379Z,43.27
2019-01-27T10:17:26.436Z,39.80
2019-01-27T10:20:09.974Z,35.30
2019-01-27T10:22:55.559Z,31.60
2019-01-27T10:25:44.827Z,26.83
2019-01-27T10:28:34.506Z,38.97
2019-01-27T10:31:16.697Z,36.30
2019-01-27T10:34:05.355Z,31.27
2019-01-27T10:36:54.319Z,36.63
2019-01-27T10:39:43.783Z,26.53
2019-01-27T10:42:32.856Z,24.67
2019-01-27T10:45:21.916Z,25.23
2019-01-27T10:51:25.639Z,24.70
2019-01-27T10:54:00.779Z,20.63
2019-01-27T10:56:37.657Z,33.33
2019-01-27T10:59:26.814Z,25.80
2019-01-27T11:02:15.888Z,20.63
2019-01-27T11:04:56.339Z,23.07
2019-01-27T11:07:36.492Z,24.07
2019-01-27T11:10:25.760Z,21.70
2019-01-27T11:13:07.768Z,22.43
2019-01-27T11:15:56.334Z,22.10
2019-01-27T11:18:45.063Z,15.40
2019-01-27T11:21:34.027Z,16.07
2019-01-27T11:24:14.894Z,15.13
2019-01-27T11:26:53.211Z,14.63
2019-01-27T11:29:36.637Z,16.77
2019-01-27T11:32:26.215Z,19.07
2019-01-27T11:35:11.686Z,19.63
2019-01-27T11:38:00.662Z,22.67
2019-01-27T11:40:49.093Z,22.90
2019-01-27T11:43:29.258Z,18.93
2019-01-27T11:46:18.829Z,29.37
2019-01-27T11:49:00.012Z,22.37
2019-01-27T11:51:41.293Z,23.57
2019-01-27T11:54:11.096Z,26.43
2019-01-27T11:56:40.815Z,26.40
2019-01-27T11:59:11.660Z,41.57
2019-01-27T12:01:41.454Z,39.67
2019-01-27T12:04:11.474Z,42.40
2019-01-27T12:06:41.593Z,29.77
2019-01-27T12:09:11.412Z,27.73
2019-01-27T12:11:41.623Z,30.63
2019-01-27T12:14:11.644Z,38.73
2019-01-27T12:16:41.459Z,38.53
2019-01-27T12:19:11.680Z,33.33
2019-01-27T12:21:42.419Z,41.10
2019-01-27T12:24:12.523Z,33.97
2019-01-27T12:26:43.061Z,35.57
2019-01-27T12:29:13.386Z,31.17
2019-01-27T12:31:43.497Z,31.47
2019-01-27T12:34:13.416Z,27.77
2019-01-27T12:36:43.736Z,21.13
2019-01-27T12:39:13.666Z,27.70
2019-01-27T12:41:44.782Z,26.70
2019-01-27T12:44:14.909Z,27.80
2019-01-27T12:46:45.647Z,24.47
2019-01-27T12:49:16.686Z,24.83
2019-01-27T12:51:47.217Z,21.60
2019-01-27T12:54:20.819Z,20.53
2019-01-27T12:56:51.851Z,20.60
2019-01-27T12:59:23.424Z,19.40
2019-01-27T13:02:08.890Z,23.50
2019-01-27T13:04:49.556Z,20.70
2019-01-27T13:07:30.731Z,20.57
2019-01-27T13:10:11.611Z,18.70
2019-01-27T13:12:50.734Z,18.17
2019-01-27T13:15:27.928Z,15.50
2019-01-27T13:18:03.468Z,16.63
2019-01-27T13:20:38.286Z,21.30
2019-01-27T13:23:10.873Z,22.77
2019-01-27T13:25:46.083Z,27.40
2019-01-27T13:28:20.019Z,32.90
2019-01-27T13:30:55.668Z,31.87
2019-01-27T13:33:29.573Z,34.47
2019-01-27T13:36:03.578Z,32.03
2019-01-27T13:38:38.308Z,39.83
2019-01-27T13:41:11.802Z,40.40
2019-01-27T13:43:46.225Z,32.00
2019-01-27T13:46:19.626Z,28.53
2019-01-27T13:48:50.467Z,23.67
2019-01-27T13:51:23.957Z,24.50
2019-01-27T13:53:54.888Z,25.63
2019-01-27T13:56:33.312Z,21.37
2019-01-27T13:59:04.863Z,23.70
2019-01-27T14:01:38.469Z,22.60
2019-01-27T14:04:10.432Z,23.07
2019-01-27T14:06:42.380Z,23.23
2019-01-27T14:09:14.755Z,18.70
2019-01-27T14:11:49.375Z,20.60
2019-01-27T14:14:23.387Z,22.03
2019-01-27T14:16:55.250Z,21.03
2019-01-27T14:19:27.826Z,19.27
2019-01-27T14:22:02.112Z,22.33
2019-01-27T14:24:33.398Z,20.13
2019-01-27T14:27:09.671Z,22.20
2019-01-27T14:30:01.686Z,23.93
2019-01-27T14:32:38.327Z,22.87
2019-01-27T14:35:17.733Z,23.20
2019-01-27T14:37:53.086Z,22.23
2019-01-27T14:40:39.533Z,23.77
2019-01-27T14:43:21.094Z,21.83
2019-01-27T14:46:25.453Z,22.80
2019-01-27T14:49:09.189Z,22.03
2019-01-27T14:51:44.245Z,24.87
2019-01-27T14:54:18.965Z,23.57
2019-01-27T14:56:53.377Z,22.67
2019-01-27T14:59:35.765Z,20.83
2019-01-27T15:02:21.254Z,20.23
2019-01-27T15:04:58.021Z,22.13
2019-01-27T15:07:36.029Z,22.93
2019-01-27T15:10:16.085Z,24.43
2019-01-27T15:12:58.886Z,26.60
2019-01-27T15:15:38.438Z,22.47
2019-01-27T15:18:14.189Z,23.00
2019-01-27T15:20:50.254Z,21.97
2019-01-27T15:23:25.781Z,19.83
2019-01-27T15:25:56.766Z,23.60
2019-01-27T15:28:27.376Z,21.93
2019-01-27T15:30:57.897Z,23.07
2019-01-27T15:33:34.259Z,25.73
2019-01-27T15:36:05.083Z,24.47
2019-01-27T15:38:37.788Z,22.13
2019-01-27T15:41:13.009Z,36.73
2019-01-27T15:43:48.524Z,29.73
2019-01-27T15:46:18.064Z,22.07
2019-01-27T15:48:54.317Z,21.33
2019-01-27T15:51:26.123Z,22.37
2019-01-27T15:53:57.331Z,23.60
2019-01-27T15:56:32.682Z,26.40
2019-01-27T15:59:07.499Z,25.07
2019-01-27T16:01:51.044Z,23.10
2019-01-27T16:04:21.565Z,27.30
2019-01-27T16:06:57.637Z,26.03
2019-01-27T16:09:29.079Z,24.70
2019-01-27T16:12:00.829Z,25.00
2019-01-27T16:14:59.739Z,26.97
2019-01-27T16:20:52.796Z,28.93
2019-01-27T16:23:42.106Z,29.17
2019-01-27T16:26:13.735Z,29.30
2019-01-27T16:28:51.317Z,29.43
2019-01-27T16:31:46.765Z,29.93
2019-01-27T16:34:36.499Z,30.43
2019-01-27T16:37:09.477Z,27.20
2019-01-27T16:39:46.377Z,28.97
2019-01-27T16:42:23.755Z,28.00
2019-01-27T16:44:58.785Z,29.77
2019-01-27T16:47:38.106Z,28.73
2019-01-27T16:50:13.287Z,29.03
2019-01-27T16:52:45.849Z,30.43
2019-01-27T16:55:23.763Z,31.70
2019-01-27T16:57:58.983Z,35.97
2019-01-27T17:00:31.764Z,35.03
2019-01-27T17:03:06.801Z,34.97
2019-01-27T17:05:39.971Z,32.17
2019-01-27T17:08:17.573Z,32.37
2019-01-27T17:10:54.977Z,34.87
2019-01-27T17:13:27.534Z,34.07
2019-01-27T17:16:04.615Z,39.43
2019-01-27T17:18:41.072Z,30.97
2019-01-27T17:21:25.338Z,37.50
2019-01-27T17:23:55.983Z,40.40
2019-01-27T17:26:28.862Z,37.70
2019-01-27T17:29:05.419Z,38.57
2019-01-27T17:31:44.450Z,33.90
2019-01-27T17:34:14.575Z,33.57
2019-01-27T17:36:50.321Z,35.03
2019-01-27T17:39:42.249Z,36.07
2019-01-27T17:45:06.767Z,39.13
2019-01-27T17:47:49.158Z,35.00
2019-01-27T17:50:29.212Z,37.97
2019-01-27T17:53:03.627Z,40.67
2019-01-27T17:55:42.366Z,36.00
2019-01-27T17:58:33.894Z,34.73
2019-01-27T18:01:28.361Z,37.77
2019-01-27T18:04:23.589Z,38.70
2019-01-27T18:07:19.200Z,41.67
2019-01-27T18:10:11.546Z,38.30
2019-01-27T18:13:05.938Z,36.23
2019-01-27T18:15:37.694Z,37.10
2019-01-27T18:18:10.114Z,37.07
2019-01-27T18:20:42.618Z,38.33
2019-01-27T18:23:21.855Z,38.67
2019-01-27T18:25:54.099Z,38.53
2019-01-27T18:28:27.203Z,36.17
2019-01-27T18:30:58.782Z,37.43
2019-01-27T18:33:34.410Z,34.80
2019-01-27T18:36:07.109Z,36.63
2019-01-27T18:38:45.097Z,33.37
2019-01-27T18:41:19.081Z,34.20
2019-01-27T18:43:53.622Z,38.47
2019-01-27T18:46:28.142Z,40.23
2019-01-27T18:49:03.817Z,34.40
2019-01-27T18:51:37.801Z,35.27
2019-01-27T18:54:30.550Z,36.97
2019-01-27T18:57:16.846Z,39.60
2019-01-27T18:59:58.652Z,39.57
2019-01-27T19:02:50.696Z,35.97
2019-01-27T19:05:49.980Z,43.47
2019-01-27T19:08:40.387Z,38.73
2019-01-27T19:11:28.334Z,39.40
2019-01-27T19:14:18.515Z,39.03
2019-01-27T19:16:59.995Z,34.17
2019-01-27T19:19:52.628Z,36.03
2019-01-27T19:22:40.050Z,37.33
2019-01-27T19:25:36.284Z,33.00
2019-01-27T19:28:22.795Z,34.43
2019-01-27T19:31:06.647Z,33.57
2019-01-27T19:33:52.855Z,30.77
2019-01-27T19:40:07.709Z,29.83
2019-01-27T19:46:23.013Z,26.30
2019-01-27T19:49:02.443Z,33.23
2019-01-27T19:52:00.933Z,29.87
2019-01-27T19:54:51.107Z,32.33
2019-01-27T19:57:31.134Z,30.93
2019-01-27T20:00:23.088Z,30.97
2019-01-27T20:03:10.940Z,31.90
2019-01-27T20:05:57.548Z,29.77
2019-01-27T20:08:43.033Z,31.20
2019-01-27T20:11:39.763Z,30.10
2019-01-27T20:14:34.057Z,28.73
2019-01-27T20:17:12.876Z,32.43
2019-01-27T20:20:05.820Z,30.37
2019-01-27T20:22:57.754Z,29.33
2019-01-27T20:25:49.885Z,31.97
2019-01-27T20:28:30.981Z,34.27
2019-01-27T20:31:28.423Z,33.63
2019-01-27T20:34:20.462Z,33.30
2019-01-27T20:37:03.678Z,33.63
2019-01-27T20:39:46.502Z,35.63
2019-01-27T20:42:28.983Z,38.93
2019-01-27T20:45:28.632Z,36.40
2019-01-27T20:48:19.019Z,36.63
2019-01-27T20:51:04.606Z,34.70
2019-01-27T20:54:03.587Z,40.00
2019-01-27T20:57:13.985Z,39.67
2019-01-27T21:00:21.883Z,39.50
2019-01-27T21:03:09.080Z,38.03
2019-01-27T21:06:06.161Z,39.63
2019-01-27T21:08:57.952Z,40.17
2019-01-27T21:12:00.746Z,37.67
2019-01-27T21:14:42.541Z,38.93
2019-01-27T21:17:38.107Z,39.93
2019-01-27T21:20:28.236Z,37.33
2019-01-27T21:23:21.735Z,37.87
2019-01-27T21:26:03.930Z,36.87
2019-01-27T21:28:45.691Z,37.47
2019-01-27T21:31:25.133Z,36.83
2019-01-27T21:33:56.803Z,40.30
2019-01-27T21:36:31.012Z,38.00
2019-01-27T21:39:04.921Z,35.30
2019-01-27T21:41:42.914Z,39.03
2019-01-27T21:44:18.871Z,42.63
2019-01-27T21:47:10.965Z,43.30
2019-01-27T21:49:51.444Z,38.57
2019-01-27T21:52:48.964Z,41.70
2019-01-27T21:55:52.156Z,38.40
2019-01-27T22:05:04.128Z,40.83
2019-01-27T22:07:41.395Z,37.80
2019-01-27T22:10:18.833Z,38.93
2019-01-27T22:13:10.719Z,41.90
2019-01-27T22:15:54.975Z,40.93
2019-01-27T22:18:34.361Z,41.23
2019-01-27T22:21:10.640Z,36.53
2019-01-27T22:23:45.861Z,36.80
2019-01-27T22:26:24.745Z,36.03
2019-01-27T22:29:04.105Z,37.67
2019-01-27T22:31:39.045Z,42.57
2019-01-27T22:34:11.516Z,36.97
2019-01-27T22:36:45.787Z,38.13
2019-01-27T22:39:38.595Z,38.10
2019-01-27T22:42:21.475Z,38.73
2019-01-27T22:44:45.089Z,45.63
2019-01-27T22:47:16.955Z,42.73
2019-01-27T22:49:56.977Z,49.23
2019-01-27T22:52:38.643Z,50.33
2019-01-27T22:55:33.229Z,58.27
2019-01-27T23:01:14.573Z,54.17
2019-01-27T23:03:55.030Z,49.43
2019-01-27T23:06:39.430Z,50.63
2019-01-27T23:09:16.869Z,49.53
2019-01-27T23:11:50.672Z,52.63
2019-01-27T23:14:21.716Z,52.80
2019-01-27T23:20:14.077Z,49.17
2019-01-27T23:22:58.011Z,50.37
2019-01-27T23:28:29.033Z,54.37
2019-01-27T23:31:20.835Z,46.13
2019-01-27T23:34:22.777Z,51.63
2019-01-27T23:36:53.858Z,51.10
2019-01-27T23:39:25.475Z,49.43
2019-01-27T23:42:02.339Z,51.97
2019-01-27T23:44:38.705Z,48.87
2019-01-27T23:47:10.181Z,51.57
2019-01-27T23:49:43.757Z,51.67
2019-01-27T23:52:19.453Z,55.43
2019-01-27T23:54:58.134Z,51.30
2019-01-27T23:57:54.986Z,53.83
